• Join FlightAware (Why Join?)
  • Login
  • US Flag 
12:17PM EST


 

Airport Tracker/Info


-or-


 

Live Flight TrackerFlight Track Log ✈ N112WC ✈ 11-Aug-2013 ✈ KCQF - KFTY

Flight Track Log - Related Links

Times and Time Zones

All times are in EDT time to prevent confusion due to time zone crossing. See the N112WC flight status page for this flight to view local times or setup timezone preferences in your user account.

Time Position Orientation Groundspeed Altitude Reporting Facility
EDT Latitude Longitude Course Direction KTS MPH feet Rate Location/Type
05:19PM 30.5031 -87.9539 344° North 233 268 7,600  Level Houston Center
05:20PM 30.5761 -87.9492 North 253 291 9,800 2,516 Climbing Houston Center
05:21PM 30.6725 -87.9297 10° North 290 334 12,800 2,613 Climbing Houston Center
05:22PM 30.7486 -87.8903 24° Northeast 297 342 15,200 2,177 Climbing Houston Center
05:23PM 30.8242 -87.8400 30° Northeast 308 354 17,300 1,984 Climbing Houston Center
05:24PM 30.8894 -87.7714 42° Northeast 316 364 19,300 2,032 Climbing Houston Center
05:25PM 30.9508 -87.7011 44° Northeast 313 360 21,500 2,081 Climbing Houston Center
05:26PM 31.0206 -87.6119 48° Northeast 314 361 23,600 1,694 Climbing Houston Center
05:27PM 31.0789 -87.5314 50° Northeast 323 372 25,000 677 Climbing Houston Center
05:28PM 31.1456 -87.4394 50° Northeast 371 427 25,000  Level Houston Center
05:29PM 31.2189 -87.3403 49° Northeast 403 464 25,000  Level Houston Center
05:30PM 31.3147 -87.2531 38° Northeast 431 496 25,000 768 Level Houston Center
05:31PM 31.4297 -87.1539 36° Northeast 419 482 26,600 976 Climbing Atlanta Center
05:32PM 31.5278 -87.0744 35° Northeast 424 488 27,000 200 Climbing Atlanta Center
05:33PM 31.6153 -86.9992 36° Northeast 429 494 27,000  Level Atlanta Center
05:34PM 31.7156 -86.9072 38° Northeast 435 501 27,000  Level Atlanta Center
05:35PM 31.8053 -86.8075 43° Northeast 447 514 27,000  Level Atlanta Center
05:36PM 31.8994 -86.7028 43° Northeast 447 514 27,000 -400 Level Atlanta Center
05:37PM 32.0061 -86.5933 41° Northeast 455 524 26,200 -1,200 Descending Atlanta Center
05:38PM 32.1000 -86.4906 43° Northeast 455 524 24,600 -1,100 Descending Atlanta Center
05:39PM 32.1706 -86.4067 45° Northeast 449 517 24,000 -300 Descending Atlanta Center
05:40PM 32.2836 -86.2819 43° Northeast 458 527 24,000  Level Atlanta Center
05:41PM 32.3689 -86.1783 46° Northeast 449 517 24,000 -50 Level Atlanta Center
05:42PM 32.4603 -86.0747 51° Northeast 444 511 23,900 -800 Descending Atlanta Center
05:43PM 32.4404 -86.0742 51° Northeast  Level FlightAware Approximate
05:43PM 32.5561 -85.9683 43° Northeast 456 525 22,400  Level Atlanta Center
05:44PM 32.6431 -85.8667 45° Northeast 451 519 21,100 -1,350 Descending Atlanta Center
05:45PM 32.7322 -85.7650 44° Northeast 444 511 19,700 -1,350 Descending Atlanta Center
05:46PM 32.8169 -85.6678 44° Northeast 428 493 18,400 -1,200 Descending Atlanta Center
05:47PM 32.8997 -85.5728 44° Northeast 422 486 17,300 -1,200 Descending Atlanta Center
05:48PM 32.9864 -85.4753 43° Northeast 417 480 16,000 -1,300 Descending Atlanta Center
05:49PM 33.0603 -85.3972 42° Northeast 402 463 14,700 -1,450 Descending Atlanta Center
05:50PM 33.1386 -85.3064 44° Northeast 390 449 13,100 -1,550 Descending Atlanta Center
05:51PM 33.2147 -85.2183 44° Northeast 380 437 11,600 -1,050 Descending Atlanta Center
05:52PM 33.2864 -85.1447 41° Northeast 356 410 11,000 -450 Descending Atlanta Center
05:53PM 33.3658 -85.1158 17° North 301 346 10,700 -1,100 Descending Atlanta Center
05:54PM 33.4453 -85.0919 14° North 286 329 8,800 -1,950 Descending Atlanta Center
05:55PM 33.5292 -85.0681 13° North 280 322 6,800 -2,000 Descending Atlanta Center
05:56PM 33.5981 -85.0389 19° North 270 311 4,800 -1,400 Descending Atlanta Center
05:57PM 33.6633 -84.9947 29° Northeast 265 305 4,000 -400 Descending Atlanta Center
05:58PM 33.7283 -84.9556 27° Northeast 260 299 4,000  Level Atlanta Center
05:59PM 33.7725 -84.8933 49° Northeast 248 285 4,000  Level Atlanta Center
06:00PM 33.8000 -84.8000 70° East 250 288 4,000 -48 Level Atlanta TRACON
06:01PM 33.8000 -84.7167 90° East 250 288 3,900 -500 Descending Atlanta TRACON
06:02PM 33.8167 -84.6333 76° East 245 282 3,000 -400 Descending Atlanta TRACON
06:03PM 33.8167 -84.5667 90° East 226 260 3,100 -200 Climbing Atlanta TRACON
06:04PM 33.8333 -84.5000 73° East 187 215 2,600 -600 Descending Atlanta TRACON
06:05PM 33.8167 -84.4667 121° Southeast 154 177 1,900 -550 Descending Atlanta TRACON
06:06PM 33.7833 -84.4833 203° Southwest 125 144 1,500 -400 Descending Atlanta TRACON
06:08PM 33.7667 -84.5167 192° South  Level FlightAware Approximate
06:15PM 33.7791 -84.5214 192° South  Level Estimated
06:16PM 33.7791 -84.5214 192° South  Level Estimated